MAS2528 WMKK-WBGG
Flight info
| Callsign | MAS2528 |
|---|---|
| Flight time | 1h 27m |
| Altitude | 39000 |
| Route | KIMAT1E KIMAT Y344 VPK M761 ESBAL ESBAL1B |
| Aircraft | B738/M-SDE2E3FGHIRWXY/LB1 |
Departure
| Time | 2026-04-17 10:06 |
|---|---|
| Airport | Kuala Lumpur International Airport (WMKK) |
Arrival
| Time | 2026-04-17 11:33 |
|---|---|
| Airport | Kuching International Airport (WBGG) |
| Time | Latitude | Longitude | Altitude | Speed | Heading |
|---|---|---|---|---|---|
| 2026-04-17 09:39 | 2.75125 | 101.70221 | 72 ft | 0 kts | 146° |
| 2026-04-17 09:49 | 2.75135 | 101.70214 | 79 ft | 2 kts | 147° |
| 2026-04-17 09:50 | 2.75149 | 101.70205 | 60 ft | 2 kts | 161° |
| 2026-04-17 09:50 | 2.75163 | 101.70210 | 64 ft | 2 kts | 236° |
| 2026-04-17 09:50 | 2.75167 | 101.70217 | 63 ft | 0 kts | 237° |
| 2026-04-17 09:53 | 2.75159 | 101.70205 | 72 ft | 5 kts | 236° |
| 2026-04-17 09:53 | 2.75135 | 101.70169 | 69 ft | 7 kts | 237° |
| 2026-04-17 09:54 | 2.75107 | 101.70125 | 65 ft | 7 kts | 238° |
| 2026-04-17 09:54 | 2.75078 | 101.70082 | 70 ft | 7 kts | 234° |
| 2026-04-17 09:54 | 2.75047 | 101.70037 | 70 ft | 9 kts | 235° |
| 2026-04-17 09:54 | 2.75007 | 101.69985 | 72 ft | 10 kts | 217° |
| 2026-04-17 09:55 | 2.74939 | 101.69999 | 72 ft | 11 kts | 147° |
| 2026-04-17 09:55 | 2.74869 | 101.70043 | 64 ft | 12 kts | 146° |
| 2026-04-17 09:55 | 2.74795 | 101.70092 | 69 ft | 14 kts | 143° |
| 2026-04-17 09:55 | 2.74709 | 101.70152 | 72 ft | 16 kts | 144° |
| 2026-04-17 09:56 | 2.74609 | 101.70218 | 62 ft | 10 kts | 156° |
| 2026-04-17 09:56 | 2.74538 | 101.70206 | 59 ft | 12 kts | 224° |
| 2026-04-17 09:56 | 2.74486 | 101.70130 | 60 ft | 15 kts | 240° |
| 2026-04-17 09:56 | 2.74395 | 101.70093 | 59 ft | 17 kts | 155° |
| 2026-04-17 09:57 | 2.74290 | 101.70164 | 56 ft | 19 kts | 148° |
| 2026-04-17 09:57 | 2.74174 | 101.70241 | 55 ft | 21 kts | 144° |
| 2026-04-17 09:57 | 2.74047 | 101.70324 | 55 ft | 23 kts | 149° |
| 2026-04-17 09:57 | 2.73916 | 101.70414 | 53 ft | 22 kts | 147° |
| 2026-04-17 09:58 | 2.73789 | 101.70497 | 51 ft | 22 kts | 147° |
| 2026-04-17 09:58 | 2.73665 | 101.70582 | 59 ft | 21 kts | 147° |
| 2026-04-17 09:58 | 2.73545 | 101.70663 | 52 ft | 21 kts | 149° |
| 2026-04-17 09:58 | 2.73425 | 101.70737 | 59 ft | 20 kts | 147° |
| 2026-04-17 09:59 | 2.73311 | 101.70815 | 56 ft | 20 kts | 147° |
| 2026-04-17 09:59 | 2.73190 | 101.70897 | 56 ft | 23 kts | 147° |
| 2026-04-17 09:59 | 2.73047 | 101.70996 | 55 ft | 27 kts | 146° |
| 2026-04-17 09:59 | 2.72883 | 101.71104 | 52 ft | 30 kts | 147° |
| 2026-04-17 10:00 | 2.72711 | 101.71220 | 50 ft | 29 kts | 148° |
| 2026-04-17 10:00 | 2.72549 | 101.71329 | 50 ft | 27 kts | 146° |
| 2026-04-17 10:00 | 2.72402 | 101.71427 | 57 ft | 21 kts | 148° |
| 2026-04-17 10:00 | 2.72286 | 101.71418 | 49 ft | 16 kts | 202° |
| 2026-04-17 10:01 | 2.72185 | 101.71458 | 52 ft | 16 kts | 144° |
| 2026-04-17 10:01 | 2.72092 | 101.71523 | 55 ft | 17 kts | 146° |
| 2026-04-17 10:01 | 2.71988 | 101.71593 | 52 ft | 20 kts | 145° |
| 2026-04-17 10:01 | 2.71865 | 101.71674 | 51 ft | 22 kts | 147° |
| 2026-04-17 10:02 | 2.71729 | 101.71766 | 49 ft | 24 kts | 144° |
| 2026-04-17 10:02 | 2.71587 | 101.71861 | 51 ft | 24 kts | 147° |
| 2026-04-17 10:02 | 2.71451 | 101.71935 | 51 ft | 16 kts | 187° |
| 2026-04-17 10:02 | 2.71400 | 101.71895 | 55 ft | 0 kts | 236° |
| 2026-04-17 10:04 | 2.71398 | 101.71891 | 55 ft | 2 kts | 236° |
| 2026-04-17 10:04 | 2.71379 | 101.71864 | 53 ft | 8 kts | 236° |
| 2026-04-17 10:04 | 2.71354 | 101.71801 | 56 ft | 11 kts | 279° |
| 2026-04-17 10:04 | 2.71390 | 101.71764 | 55 ft | 0 kts | 326° |
| 2026-04-17 10:05 | 2.71550 | 101.71655 | 51 ft | 66 kts | 326° |
| 2026-04-17 10:05 | 2.72142 | 101.71259 | 53 ft | 136 kts | 326° |
| 2026-04-17 10:05 | 2.73062 | 101.70652 | 355 ft | 167 kts | 326° |
| 2026-04-17 10:06 | 2.74038 | 101.69983 | 1010 ft | 176 kts | 325° |
| 2026-04-17 10:06 | 2.75065 | 101.69305 | 1787 ft | 176 kts | 327° |
| 2026-04-17 10:06 | 2.76121 | 101.68584 | 2315 ft | 200 kts | 319° |
| 2026-04-17 10:06 | 2.77004 | 101.67384 | 2570 ft | 229 kts | 302° |
| 2026-04-17 10:07 | 2.78036 | 101.66055 | 2841 ft | 253 kts | 310° |
| 2026-04-17 10:07 | 2.79240 | 101.64671 | 3232 ft | 272 kts | 312° |
| 2026-04-17 10:07 | 2.80502 | 101.63224 | 4035 ft | 277 kts | 311° |
| 2026-04-17 10:07 | 2.81761 | 101.61759 | 5022 ft | 278 kts | 311° |
| 2026-04-17 10:08 | 2.83026 | 101.60271 | 5909 ft | 283 kts | 311° |
| 2026-04-17 10:08 | 2.84289 | 101.58773 | 6748 ft | 287 kts | 311° |
| 2026-04-17 10:08 | 2.85585 | 101.57233 | 7599 ft | 291 kts | 310° |
| 2026-04-17 10:08 | 2.87053 | 101.55833 | 8386 ft | 295 kts | 330° |
| 2026-04-17 10:09 | 2.88981 | 101.55145 | 9208 ft | 296 kts | 352° |
| 2026-04-17 10:09 | 2.91015 | 101.54862 | 10021 ft | 300 kts | 354° |
| 2026-04-17 10:09 | 2.93156 | 101.54594 | 10388 ft | 322 kts | 354° |
| 2026-04-17 10:09 | 2.95471 | 101.54294 | 10568 ft | 347 kts | 354° |
| 2026-04-17 10:10 | 2.97935 | 101.54377 | 10818 ft | 363 kts | 15° |
| 2026-04-17 10:10 | 3.00200 | 101.55425 | 11380 ft | 366 kts | 38° |
| 2026-04-17 10:10 | 3.01947 | 101.57278 | 12084 ft | 366 kts | 55° |
| 2026-04-17 10:11 | 3.04830 | 101.61553 | 13382 ft | 375 kts | 57° |
| 2026-04-17 10:11 | 3.06253 | 101.63723 | 13955 ft | 379 kts | 57° |
| 2026-04-17 10:11 | 3.07716 | 101.65937 | 14526 ft | 382 kts | 57° |
| 2026-04-17 10:11 | 3.09200 | 101.68161 | 15100 ft | 385 kts | 57° |
| 2026-04-17 10:12 | 3.10704 | 101.70399 | 15656 ft | 389 kts | 57° |
| 2026-04-17 10:12 | 3.12211 | 101.72629 | 16166 ft | 392 kts | 57° |
| 2026-04-17 10:12 | 3.13754 | 101.74908 | 16712 ft | 396 kts | 57° |
| 2026-04-17 10:12 | 3.15310 | 101.77204 | 17230 ft | 400 kts | 57° |
| 2026-04-17 10:13 | 3.16881 | 101.79522 | 17750 ft | 403 kts | 57° |
| 2026-04-17 10:13 | 3.18466 | 101.81862 | 18246 ft | 407 kts | 57° |
| 2026-04-17 10:13 | 3.20043 | 101.84190 | 18687 ft | 410 kts | 57° |
| 2026-04-17 10:13 | 3.21648 | 101.86561 | 19145 ft | 412 kts | 57° |
| 2026-04-17 10:14 | 3.23260 | 101.88940 | 19611 ft | 414 kts | 57° |
| 2026-04-17 10:14 | 3.24859 | 101.91354 | 20045 ft | 416 kts | 61° |
| 2026-04-17 10:14 | 3.25865 | 101.94071 | 20424 ft | 418 kts | 80° |
| 2026-04-17 10:14 | 3.26004 | 101.96933 | 20853 ft | 418 kts | 97° |
| 2026-04-17 10:15 | 3.25407 | 101.99785 | 21287 ft | 420 kts | 104° |
| 2026-04-17 10:15 | 3.24654 | 102.02627 | 21667 ft | 423 kts | 105° |
| 2026-04-17 10:15 | 3.23871 | 102.05487 | 22031 ft | 426 kts | 105° |
| 2026-04-17 10:15 | 3.23099 | 102.08337 | 22416 ft | 429 kts | 105° |
| 2026-04-17 10:16 | 3.22331 | 102.11230 | 22785 ft | 431 kts | 105° |
| 2026-04-17 10:16 | 3.21570 | 102.14153 | 23156 ft | 434 kts | 104° |
| 2026-04-17 10:16 | 3.20813 | 102.17093 | 23486 ft | 436 kts | 104° |
| 2026-04-17 10:16 | 3.20056 | 102.20047 | 23783 ft | 438 kts | 104° |
| 2026-04-17 10:17 | 3.19308 | 102.22971 | 24088 ft | 440 kts | 104° |
| 2026-04-17 10:17 | 3.18546 | 102.25948 | 24394 ft | 441 kts | 104° |
| 2026-04-17 10:17 | 3.17782 | 102.28929 | 24685 ft | 443 kts | 104° |
| 2026-04-17 10:17 | 3.17012 | 102.31932 | 24969 ft | 445 kts | 104° |
| 2026-04-17 10:18 | 3.16429 | 102.34987 | 25224 ft | 448 kts | 93° |
| 2026-04-17 10:18 | 3.16683 | 102.38072 | 25501 ft | 450 kts | 79° |
| 2026-04-17 10:18 | 3.17330 | 102.41139 | 25829 ft | 451 kts | 78° |
| 2026-04-17 10:18 | 3.18019 | 102.44209 | 26084 ft | 453 kts | 78° |
| 2026-04-17 10:19 | 3.18716 | 102.47293 | 26320 ft | 456 kts | 78° |
| 2026-04-17 10:19 | 3.19401 | 102.50367 | 26577 ft | 457 kts | 78° |
| 2026-04-17 10:19 | 3.20085 | 102.53491 | 26844 ft | 459 kts | 78° |
| 2026-04-17 10:19 | 3.20758 | 102.56619 | 27094 ft | 460 kts | 78° |
| 2026-04-17 10:20 | 3.21426 | 102.59759 | 27354 ft | 462 kts | 78° |
| 2026-04-17 10:20 | 3.22093 | 102.62913 | 27602 ft | 464 kts | 78° |
| 2026-04-17 10:20 | 3.22761 | 102.66076 | 27846 ft | 465 kts | 79° |
| 2026-04-17 10:20 | 3.23429 | 102.69246 | 28084 ft | 467 kts | 79° |
| 2026-04-17 10:21 | 3.24103 | 102.72437 | 28328 ft | 468 kts | 78° |
| 2026-04-17 10:21 | 3.24771 | 102.75600 | 28556 ft | 469 kts | 79° |
| 2026-04-17 10:21 | 3.25448 | 102.78806 | 28776 ft | 471 kts | 79° |
| 2026-04-17 10:21 | 3.26129 | 102.82027 | 28996 ft | 472 kts | 78° |
| 2026-04-17 10:22 | 3.26812 | 102.85259 | 29207 ft | 474 kts | 79° |
| 2026-04-17 10:22 | 3.27486 | 102.88451 | 29420 ft | 475 kts | 78° |
| 2026-04-17 10:22 | 3.28173 | 102.91705 | 29645 ft | 476 kts | 78° |
| 2026-04-17 10:22 | 3.28848 | 102.94900 | 29936 ft | 475 kts | 79° |
| 2026-04-17 10:23 | 3.29539 | 102.98174 | 30229 ft | 473 kts | 79° |
| 2026-04-17 10:23 | 3.30220 | 103.01402 | 30476 ft | 473 kts | 79° |
| 2026-04-17 10:23 | 3.30892 | 103.04587 | 30693 ft | 474 kts | 79° |
| 2026-04-17 10:23 | 3.31574 | 103.07819 | 30917 ft | 474 kts | 79° |
| 2026-04-17 10:24 | 3.32258 | 103.11058 | 31176 ft | 473 kts | 79° |
| 2026-04-17 10:24 | 3.32938 | 103.14282 | 31449 ft | 473 kts | 79° |
| 2026-04-17 10:24 | 3.33611 | 103.17474 | 31723 ft | 472 kts | 79° |
| 2026-04-17 10:24 | 3.34291 | 103.20697 | 31982 ft | 472 kts | 79° |
| 2026-04-17 10:25 | 3.34969 | 103.23913 | 32247 ft | 472 kts | 79° |
| 2026-04-17 10:25 | 3.35638 | 103.27088 | 32523 ft | 471 kts | 79° |
| 2026-04-17 10:25 | 3.36314 | 103.30299 | 32809 ft | 470 kts | 79° |
| 2026-04-17 10:25 | 3.36993 | 103.33518 | 33106 ft | 470 kts | 79° |
| 2026-04-17 10:26 | 3.37661 | 103.36691 | 33408 ft | 469 kts | 79° |
| 2026-04-17 10:26 | 3.38153 | 103.39920 | 33656 ft | 468 kts | 87° |
| 2026-04-17 10:26 | 3.38145 | 103.43179 | 33907 ft | 467 kts | 95° |
| 2026-04-17 10:26 | 3.37692 | 103.46391 | 34152 ft | 465 kts | 104° |
| 2026-04-17 10:27 | 3.36848 | 103.49514 | 34421 ft | 464 kts | 107° |
| 2026-04-17 10:27 | 3.35951 | 103.52574 | 34659 ft | 463 kts | 107° |
| 2026-04-17 10:27 | 3.35030 | 103.55668 | 34898 ft | 463 kts | 107° |
| 2026-04-17 10:27 | 3.34113 | 103.58773 | 35149 ft | 463 kts | 107° |
| 2026-04-17 10:28 | 3.33213 | 103.61864 | 35406 ft | 462 kts | 107° |
| 2026-04-17 10:28 | 3.32335 | 103.64921 | 35645 ft | 461 kts | 107° |
| 2026-04-17 10:28 | 3.31453 | 103.68020 | 35887 ft | 461 kts | 106° |
| 2026-04-17 10:28 | 3.30578 | 103.71111 | 36134 ft | 460 kts | 106° |
| 2026-04-17 10:29 | 3.29706 | 103.74195 | 36372 ft | 460 kts | 106° |
| 2026-04-17 10:29 | 3.28844 | 103.77241 | 36608 ft | 459 kts | 106° |
| 2026-04-17 10:29 | 3.27973 | 103.80321 | 36825 ft | 459 kts | 106° |
| 2026-04-17 10:29 | 3.27100 | 103.83402 | 37037 ft | 459 kts | 106° |
| 2026-04-17 10:30 | 3.26227 | 103.86484 | 37270 ft | 459 kts | 106° |
| 2026-04-17 10:30 | 3.25366 | 103.89519 | 37507 ft | 458 kts | 106° |
| 2026-04-17 10:30 | 3.24496 | 103.92589 | 37729 ft | 457 kts | 106° |
| 2026-04-17 10:30 | 3.23625 | 103.95661 | 37941 ft | 457 kts | 106° |
| 2026-04-17 10:31 | 3.22766 | 103.98689 | 38153 ft | 457 kts | 106° |
| 2026-04-17 10:31 | 3.21897 | 104.01754 | 38362 ft | 456 kts | 106° |
| 2026-04-17 10:31 | 3.21030 | 104.04810 | 38563 ft | 456 kts | 106° |
| 2026-04-17 10:31 | 3.20163 | 104.07867 | 38690 ft | 456 kts | 106° |
| 2026-04-17 10:32 | 3.19303 | 104.10899 | 38831 ft | 456 kts | 106° |
| 2026-04-17 10:32 | 3.17560 | 104.17050 | 38849 ft | 458 kts | 105° |
| 2026-04-17 10:33 | 3.15903 | 104.23132 | 38849 ft | 454 kts | 105° |
| 2026-04-17 10:33 | 3.14263 | 104.29219 | 38848 ft | 451 kts | 105° |
| 2026-04-17 10:34 | 3.12616 | 104.35272 | 38854 ft | 449 kts | 105° |
| 2026-04-17 10:34 | 3.10967 | 104.41265 | 38852 ft | 448 kts | 105° |
| 2026-04-17 10:35 | 3.09307 | 104.47285 | 38852 ft | 448 kts | 105° |
| 2026-04-17 10:35 | 3.07658 | 104.53277 | 38860 ft | 449 kts | 105° |
| 2026-04-17 10:36 | 3.05993 | 104.59329 | 38857 ft | 450 kts | 105° |
| 2026-04-17 10:36 | 3.04325 | 104.65391 | 38855 ft | 452 kts | 105° |
| 2026-04-17 10:37 | 3.02657 | 104.71443 | 38855 ft | 453 kts | 105° |
| 2026-04-17 10:37 | 3.00981 | 104.77513 | 38861 ft | 455 kts | 105° |
| 2026-04-17 10:38 | 2.99292 | 104.83633 | 38851 ft | 456 kts | 105° |
| 2026-04-17 10:38 | 2.97608 | 104.89732 | 38857 ft | 457 kts | 105° |
| 2026-04-17 10:39 | 2.95912 | 104.95879 | 38855 ft | 457 kts | 105° |
| 2026-04-17 10:39 | 2.94224 | 105.01991 | 38854 ft | 457 kts | 105° |
| 2026-04-17 10:40 | 2.92525 | 105.08145 | 38856 ft | 457 kts | 105° |
| 2026-04-17 10:40 | 2.90843 | 105.14236 | 38854 ft | 456 kts | 105° |
| 2026-04-17 10:41 | 2.89149 | 105.20359 | 38856 ft | 455 kts | 105° |
| 2026-04-17 10:41 | 2.87450 | 105.26412 | 38855 ft | 454 kts | 105° |
| 2026-04-17 10:42 | 2.85768 | 105.32503 | 38856 ft | 453 kts | 105° |
| 2026-04-17 10:42 | 2.84104 | 105.38547 | 38854 ft | 452 kts | 105° |
| 2026-04-17 10:43 | 2.82432 | 105.44608 | 38856 ft | 451 kts | 105° |
| 2026-04-17 10:43 | 2.80758 | 105.50669 | 38856 ft | 451 kts | 105° |
| 2026-04-17 10:44 | 2.79095 | 105.56689 | 38854 ft | 451 kts | 105° |
| 2026-04-17 10:44 | 2.77423 | 105.62742 | 38855 ft | 451 kts | 105° |
| 2026-04-17 10:45 | 2.75748 | 105.68806 | 38852 ft | 451 kts | 105° |
| 2026-04-17 10:45 | 2.74083 | 105.74828 | 38850 ft | 451 kts | 105° |
| 2026-04-17 10:46 | 2.72411 | 105.80888 | 38857 ft | 451 kts | 105° |
| 2026-04-17 10:46 | 2.70737 | 105.86959 | 38855 ft | 452 kts | 105° |
| 2026-04-17 10:47 | 2.69071 | 105.92995 | 38853 ft | 452 kts | 105° |
| 2026-04-17 10:47 | 2.67401 | 105.99048 | 38852 ft | 453 kts | 105° |
| 2026-04-17 10:48 | 2.65721 | 106.05133 | 38856 ft | 453 kts | 105° |
| 2026-04-17 10:48 | 2.64052 | 106.11182 | 38853 ft | 453 kts | 105° |
| 2026-04-17 10:49 | 2.62368 | 106.17279 | 38852 ft | 453 kts | 105° |
| 2026-04-17 10:49 | 2.60694 | 106.23343 | 38852 ft | 454 kts | 105° |
| 2026-04-17 10:50 | 2.59297 | 106.28400 | 38853 ft | 453 kts | 105° |
| 2026-04-17 10:50 | 2.57618 | 106.34477 | 38851 ft | 453 kts | 105° |
| 2026-04-17 10:51 | 2.55939 | 106.40556 | 38855 ft | 453 kts | 105° |
| 2026-04-17 10:51 | 2.54261 | 106.46643 | 38852 ft | 453 kts | 105° |
| 2026-04-17 10:52 | 2.52593 | 106.52706 | 38856 ft | 453 kts | 105° |
| 2026-04-17 10:52 | 2.50928 | 106.58746 | 38855 ft | 453 kts | 105° |
| 2026-04-17 10:53 | 2.49248 | 106.64826 | 38856 ft | 452 kts | 105° |
| 2026-04-17 10:53 | 2.47579 | 106.70869 | 38854 ft | 452 kts | 105° |
| 2026-04-17 10:54 | 2.45902 | 106.76944 | 38856 ft | 452 kts | 105° |
| 2026-04-17 10:54 | 2.44237 | 106.82974 | 38855 ft | 451 kts | 105° |
| 2026-04-17 10:55 | 2.42572 | 106.89004 | 38853 ft | 451 kts | 105° |
| 2026-04-17 10:55 | 2.40898 | 106.95062 | 38852 ft | 451 kts | 105° |
| 2026-04-17 10:56 | 2.39236 | 107.01080 | 38851 ft | 450 kts | 105° |
| 2026-04-17 10:56 | 2.37563 | 107.07137 | 38851 ft | 450 kts | 105° |
| 2026-04-17 10:57 | 2.35901 | 107.13144 | 38852 ft | 450 kts | 105° |
| 2026-04-17 10:57 | 2.34227 | 107.19186 | 38853 ft | 450 kts | 105° |
| 2026-04-17 10:58 | 2.32551 | 107.25236 | 38853 ft | 450 kts | 105° |
| 2026-04-17 10:58 | 2.30884 | 107.31254 | 38853 ft | 451 kts | 105° |
| 2026-04-17 10:59 | 2.29208 | 107.37308 | 38852 ft | 451 kts | 105° |
| 2026-04-17 10:59 | 2.27528 | 107.43370 | 38853 ft | 452 kts | 105° |
| 2026-04-17 11:00 | 2.25857 | 107.49402 | 38851 ft | 452 kts | 105° |
| 2026-04-17 11:00 | 2.24173 | 107.55477 | 38849 ft | 452 kts | 105° |
| 2026-04-17 11:01 | 2.22496 | 107.61527 | 38851 ft | 452 kts | 105° |
| 2026-04-17 11:01 | 2.20820 | 107.67572 | 38848 ft | 452 kts | 105° |
| 2026-04-17 11:02 | 2.19144 | 107.73619 | 38854 ft | 452 kts | 105° |
| 2026-04-17 11:02 | 2.17455 | 107.79712 | 38852 ft | 452 kts | 105° |
| 2026-04-17 11:03 | 2.15781 | 107.85745 | 38852 ft | 452 kts | 105° |
| 2026-04-17 11:03 | 2.14089 | 107.91797 | 38851 ft | 452 kts | 105° |
| 2026-04-17 11:04 | 2.12390 | 107.97861 | 38853 ft | 451 kts | 105° |
| 2026-04-17 11:04 | 2.10704 | 108.03886 | 38853 ft | 451 kts | 105° |
| 2026-04-17 11:05 | 2.09026 | 108.09883 | 38852 ft | 450 kts | 105° |
| 2026-04-17 11:05 | 2.07339 | 108.15914 | 38856 ft | 449 kts | 105° |
| 2026-04-17 11:06 | 2.05654 | 108.21936 | 38853 ft | 449 kts | 105° |
| 2026-04-17 11:06 | 2.03979 | 108.27922 | 38856 ft | 448 kts | 105° |
| 2026-04-17 11:07 | 2.02293 | 108.33946 | 38853 ft | 448 kts | 105° |
| 2026-04-17 11:07 | 2.00625 | 108.39905 | 38856 ft | 448 kts | 105° |
| 2026-04-17 11:08 | 1.98941 | 108.45923 | 38854 ft | 448 kts | 105° |
| 2026-04-17 11:08 | 1.97274 | 108.51893 | 38855 ft | 448 kts | 105° |
| 2026-04-17 11:09 | 1.95626 | 108.57937 | 38855 ft | 448 kts | 105° |
| 2026-04-17 11:09 | 1.93994 | 108.63957 | 38856 ft | 449 kts | 105° |
| 2026-04-17 11:10 | 1.91543 | 108.72975 | 38859 ft | 450 kts | 105° |
| 2026-04-17 11:10 | 1.89889 | 108.79050 | 38354 ft | 458 kts | 105° |
| 2026-04-17 11:11 | 1.89052 | 108.82125 | 37769 ft | 457 kts | 105° |
| 2026-04-17 11:11 | 1.88228 | 108.85150 | 37162 ft | 456 kts | 105° |
| 2026-04-17 11:11 | 1.87394 | 108.88213 | 36544 ft | 455 kts | 105° |
| 2026-04-17 11:11 | 1.86561 | 108.91271 | 35930 ft | 454 kts | 105° |
| 2026-04-17 11:12 | 1.85728 | 108.94328 | 35274 ft | 455 kts | 105° |
| 2026-04-17 11:12 | 1.84903 | 108.97357 | 34584 ft | 458 kts | 105° |
| 2026-04-17 11:12 | 1.84062 | 109.00445 | 33873 ft | 460 kts | 106° |
| 2026-04-17 11:12 | 1.83216 | 109.03547 | 33044 ft | 463 kts | 106° |
| 2026-04-17 11:13 | 1.82368 | 109.06660 | 32276 ft | 464 kts | 106° |
| 2026-04-17 11:13 | 1.81528 | 109.09744 | 31512 ft | 466 kts | 106° |
| 2026-04-17 11:13 | 1.80672 | 109.12884 | 30913 ft | 464 kts | 106° |
| 2026-04-17 11:13 | 1.79827 | 109.15986 | 30352 ft | 461 kts | 106° |
| 2026-04-17 11:14 | 1.78994 | 109.19042 | 29787 ft | 458 kts | 106° |
| 2026-04-17 11:14 | 1.78157 | 109.22112 | 29153 ft | 455 kts | 106° |
| 2026-04-17 11:14 | 1.77327 | 109.25159 | 28572 ft | 451 kts | 106° |
| 2026-04-17 11:14 | 1.76503 | 109.28180 | 28001 ft | 447 kts | 106° |
| 2026-04-17 11:15 | 1.75700 | 109.31127 | 27455 ft | 443 kts | 106° |
| 2026-04-17 11:15 | 1.74891 | 109.34095 | 26917 ft | 439 kts | 106° |
| 2026-04-17 11:15 | 1.74091 | 109.37027 | 26377 ft | 436 kts | 106° |
| 2026-04-17 11:15 | 1.73296 | 109.39944 | 25838 ft | 433 kts | 106° |
| 2026-04-17 11:16 | 1.72508 | 109.42835 | 25287 ft | 431 kts | 106° |
| 2026-04-17 11:16 | 1.71719 | 109.45728 | 24738 ft | 430 kts | 106° |
| 2026-04-17 11:16 | 1.70936 | 109.48598 | 24195 ft | 428 kts | 105° |
| 2026-04-17 11:16 | 1.70156 | 109.51458 | 23660 ft | 427 kts | 105° |
| 2026-04-17 11:17 | 1.69374 | 109.54325 | 23044 ft | 425 kts | 105° |
| 2026-04-17 11:17 | 1.68598 | 109.57185 | 22464 ft | 423 kts | 105° |
| 2026-04-17 11:17 | 1.67850 | 109.60004 | 21919 ft | 419 kts | 105° |
| 2026-04-17 11:17 | 1.67114 | 109.62805 | 21392 ft | 416 kts | 105° |
| 2026-04-17 11:18 | 1.66390 | 109.65571 | 20854 ft | 413 kts | 105° |
| 2026-04-17 11:18 | 1.65665 | 109.68335 | 20343 ft | 410 kts | 105° |
| 2026-04-17 11:18 | 1.64937 | 109.71106 | 19820 ft | 407 kts | 105° |
| 2026-04-17 11:18 | 1.64220 | 109.73832 | 19287 ft | 406 kts | 105° |
| 2026-04-17 11:19 | 1.63504 | 109.76551 | 18759 ft | 404 kts | 105° |
| 2026-04-17 11:19 | 1.62789 | 109.79265 | 18247 ft | 402 kts | 105° |
| 2026-04-17 11:19 | 1.62083 | 109.81943 | 17722 ft | 399 kts | 105° |
| 2026-04-17 11:19 | 1.61378 | 109.84620 | 17238 ft | 394 kts | 105° |
| 2026-04-17 11:20 | 1.60685 | 109.87249 | 16737 ft | 391 kts | 105° |
| 2026-04-17 11:20 | 1.60002 | 109.89842 | 16248 ft | 388 kts | 104° |
| 2026-04-17 11:20 | 1.59312 | 109.92457 | 15756 ft | 385 kts | 104° |
| 2026-04-17 11:20 | 1.58631 | 109.95042 | 15260 ft | 383 kts | 104° |
| 2026-04-17 11:21 | 1.57964 | 109.97574 | 14765 ft | 381 kts | 104° |
| 2026-04-17 11:21 | 1.57292 | 110.00125 | 14269 ft | 379 kts | 104° |
| 2026-04-17 11:21 | 1.56620 | 110.02673 | 13769 ft | 378 kts | 104° |
| 2026-04-17 11:21 | 1.55950 | 110.05214 | 13234 ft | 376 kts | 104° |
| 2026-04-17 11:22 | 1.55307 | 110.07742 | 12725 ft | 373 kts | 100° |
| 2026-04-17 11:22 | 1.55250 | 110.10280 | 12256 ft | 367 kts | 79° |
| 2026-04-17 11:22 | 1.55867 | 110.12732 | 11877 ft | 361 kts | 73° |
| 2026-04-17 11:22 | 1.56591 | 110.15124 | 11460 ft | 357 kts | 72° |
| 2026-04-17 11:23 | 1.57326 | 110.17485 | 11061 ft | 353 kts | 72° |
| 2026-04-17 11:23 | 1.58039 | 110.19787 | 10674 ft | 349 kts | 72° |
| 2026-04-17 11:23 | 1.58745 | 110.22099 | 10280 ft | 345 kts | 72° |
| 2026-04-17 11:23 | 1.59436 | 110.24387 | 9900 ft | 342 kts | 72° |
| 2026-04-17 11:24 | 1.60103 | 110.26621 | 9899 ft | 321 kts | 72° |
| 2026-04-17 11:24 | 1.60715 | 110.28679 | 9822 ft | 301 kts | 72° |
| 2026-04-17 11:24 | 1.61292 | 110.30625 | 9632 ft | 288 kts | 72° |
| 2026-04-17 11:24 | 1.61861 | 110.32540 | 9184 ft | 285 kts | 72° |
| 2026-04-17 11:25 | 1.62426 | 110.34442 | 8696 ft | 284 kts | 72° |
| 2026-04-17 11:25 | 1.62984 | 110.36322 | 8243 ft | 282 kts | 72° |
| 2026-04-17 11:25 | 1.63535 | 110.38176 | 7808 ft | 279 kts | 72° |
| 2026-04-17 11:25 | 1.64085 | 110.40032 | 7364 ft | 277 kts | 72° |
| 2026-04-17 11:26 | 1.64629 | 110.41867 | 6924 ft | 276 kts | 72° |
| 2026-04-17 11:26 | 1.65175 | 110.43708 | 6533 ft | 273 kts | 72° |
| 2026-04-17 11:26 | 1.65714 | 110.45526 | 6208 ft | 275 kts | 72° |
| 2026-04-17 11:26 | 1.66257 | 110.47356 | 5866 ft | 276 kts | 72° |
| 2026-04-17 11:27 | 1.66509 | 110.49247 | 5528 ft | 278 kts | 96° |
| 2026-04-17 11:27 | 1.65853 | 110.51052 | 5227 ft | 277 kts | 125° |
| 2026-04-17 11:27 | 1.64481 | 110.52324 | 4916 ft | 268 kts | 150° |
| 2026-04-17 11:27 | 1.62798 | 110.53074 | 4626 ft | 261 kts | 159° |
| 2026-04-17 11:28 | 1.61122 | 110.53716 | 4306 ft | 255 kts | 159° |
| 2026-04-17 11:28 | 1.59480 | 110.54348 | 4004 ft | 250 kts | 159° |
| 2026-04-17 11:28 | 1.57858 | 110.54787 | 3719 ft | 240 kts | 181° |
| 2026-04-17 11:28 | 1.56366 | 110.54268 | 3450 ft | 223 kts | 223° |
| 2026-04-17 11:29 | 1.55632 | 110.53023 | 3281 ft | 203 kts | 255° |
| 2026-04-17 11:29 | 1.55210 | 110.51705 | 3022 ft | 195 kts | 251° |
| 2026-04-17 11:29 | 1.54728 | 110.50458 | 2773 ft | 188 kts | 250° |
| 2026-04-17 11:29 | 1.54254 | 110.49260 | 2536 ft | 182 kts | 250° |
| 2026-04-17 11:30 | 1.53802 | 110.48118 | 2318 ft | 178 kts | 250° |
| 2026-04-17 11:30 | 1.53346 | 110.46961 | 2079 ft | 177 kts | 251° |
| 2026-04-17 11:30 | 1.52903 | 110.45841 | 1869 ft | 167 kts | 251° |
| 2026-04-17 11:30 | 1.52500 | 110.44820 | 1678 ft | 154 kts | 251° |
| 2026-04-17 11:31 | 1.52116 | 110.43845 | 1475 ft | 150 kts | 251° |
| 2026-04-17 11:31 | 1.51730 | 110.42867 | 1286 ft | 150 kts | 251° |
| 2026-04-17 11:31 | 1.51351 | 110.41907 | 1097 ft | 148 kts | 251° |
| 2026-04-17 11:31 | 1.50974 | 110.40950 | 915 ft | 147 kts | 251° |
| 2026-04-17 11:32 | 1.50598 | 110.39997 | 732 ft | 148 kts | 249° |
| 2026-04-17 11:32 | 1.50225 | 110.39051 | 543 ft | 147 kts | 249° |
| 2026-04-17 11:32 | 1.49851 | 110.38105 | 352 ft | 146 kts | 248° |
| 2026-04-17 11:32 | 1.49478 | 110.37161 | 157 ft | 146 kts | 248° |
| 2026-04-17 11:33 | 1.49109 | 110.36231 | 48 ft | 137 kts | 248° |
| 2026-04-17 11:33 | 1.48807 | 110.35467 | 49 ft | 103 kts | 253° |
| 2026-04-17 11:33 | 1.48650 | 110.35063 | 47 ft | 36 kts | 244° |
| 2026-04-17 11:33 | 1.48597 | 110.34894 | 47 ft | 23 kts | 272° |
| 2026-04-17 11:34 | 1.48612 | 110.34758 | 47 ft | 12 kts | 278° |
| 2026-04-17 11:34 | 1.48613 | 110.34748 | 47 ft | 1 kts | 278° |
| 2026-04-17 11:34 | 1.48614 | 110.34742 | 47 ft | 1 kts | 278° |
| 2026-04-17 11:34 | 1.48616 | 110.34734 | 47 ft | 2 kts | 278° |
| 2026-04-17 11:35 | 1.48620 | 110.34706 | 46 ft | 6 kts | 278° |
| 2026-04-17 11:35 | 1.48629 | 110.34647 | 48 ft | 10 kts | 278° |
| 2026-04-17 11:35 | 1.48665 | 110.34583 | 48 ft | 13 kts | 330° |
| 2026-04-17 11:35 | 1.48691 | 110.34530 | 48 ft | 5 kts | 250° |
| 2026-04-17 11:36 | 1.48677 | 110.34496 | 48 ft | 5 kts | 248° |
| 2026-04-17 11:36 | 1.48663 | 110.34461 | 48 ft | 5 kts | 248° |
| 2026-04-17 11:36 | 1.48649 | 110.34425 | 48 ft | 6 kts | 248° |
| 2026-04-17 11:36 | 1.48632 | 110.34384 | 45 ft | 7 kts | 248° |
| 2026-04-17 11:37 | 1.48615 | 110.34339 | 46 ft | 7 kts | 250° |
| 2026-04-17 11:37 | 1.48620 | 110.34299 | 45 ft | 6 kts | 325° |
| 2026-04-17 11:37 | 1.48657 | 110.34284 | 46 ft | 5 kts | 338° |
| 2026-04-17 11:37 | 1.48675 | 110.34277 | 48 ft | 1 kts | 338° |
| 2026-04-17 11:38 | 1.48676 | 110.34277 | 48 ft | 0 kts | 338° |